Fergus Falls Municipal Airport

About
Name: Fergus Falls Municipal Airport
Identifier:  FFM/KFFM
Local Time:  23. Aug 00:01 CDT
Location
Fergus Falls
  United States

Flights per Day
0 flights
Distance: 309km (192mi)
Punctuality
0% (0 flights per day delayed)
Delay Average: 26016567 minutes
Current Weather
 16 C (Humidity: 72%)
  6kt (11km/h / 6mph) from 130°
  16km (10 mi.)
 
 METAR KFFM 230436Z AUTO 13006KT 10SM CLR 16/11 A3013 RMK AO2

Current Flights

Departures
Number Departure To Airline
Arrivals
Number Arrival From Airline

Current Delays

Departures
N/A
Arrivals
N/A

Destinations

Top Destinations
Airport Flights
per week
Seats
per week
  Fargo (FAR) 2 - 0 0
  Duluth (DLH) 0 - 0 0
  Alexandria (AXN) 0 - 0 0
  Minneapolis (MSP) 0 - 0 0
  Oshkosh (OSH) 0 - 0 0
  Olathe (JCI) 0 - 0 0
  San Francisco (SFO) 0 - 0 0
  Minneapolis (FCM) 0 - 0 0
  Kearney (EAR) 0 - 0 0

Airlines & Planes

Top Airlines
Airline Flights
per Day
Seats
per Day
Jet Charter Inc ( Franklin Lakes Nj ) 0 -
Bemidji Airlines 0 -
Silverhawk Aviation 0 -
Xojet 0 -
  National Airlines 0 -
  Novair 0 -
Top Plane Types
Model Flights Seats
Cessna C182 0.3/day - 0
Beech 65-B80 0.1/day - 0
Cessna C82S 0.1/day - 0
Beech C-99 Airliner 0.1/day - 0
Cessna C750 0.0/day - 0
Beech E55 Baron 0.0/day - 0